Time;durP1;ratioP1;P1;durP2;ratioP2;P2;SDS_P1;SDS_P2;PMS_P1;PMS_P2;Temp;Humidity;BMP_temperature;BMP_pressure;BME280_temperature;BME280_humidity;BME280_pressure;Samples;Min_cycle;Max_cycle;Signal;HPM_P1;HPM_P2
2022/12/26 00:00:58;;;;;;;14.95;9.93;;;9.50;99.90;;;;;;2550124;23;20068;-78
2022/12/26 00:02:02;;;;;;;13.18;9.65;;;9.50;99.90;;;;;;2550813;23;20271;-78
2022/12/26 00:03:03;;;;;;;14.52;9.88;;;9.50;99.90;;;;;;2563037;23;20008;-77
2022/12/26 00:04:03;;;;;;;14.50;10.10;;;9.50;99.90;;;;;;2565750;23;20350;-78
2022/12/26 00:05:04;;;;;;;13.98;9.50;;;9.50;99.90;;;;;;2563324;23;20008;-77
2022/12/26 00:06:15;;;;;;;13.65;10.10;;;9.50;99.90;;;;;;2563508;23;20031;-78
2022/12/26 00:07:15;;;;;;;13.55;9.75;;;9.50;99.90;;;;;;2550013;23;20013;-78
2022/12/26 00:08:16;;;;;;;13.30;9.55;;;9.50;99.90;;;;;;2550308;23;20099;-76
2022/12/26 00:09:17;;;;;;;12.98;9.55;;;9.50;99.90;;;;;;2552496;23;20059;-79
2022/12/26 00:10:18;;;;;;;13.95;9.50;;;9.50;99.90;;;;;;2540098;23;20252;-78
2022/12/26 00:11:20;;;;;;;12.60;9.63;;;9.50;99.90;;;;;;2550213;23;20092;-79
2022/12/26 00:12:20;;;;;;;14.88;10.55;;;9.50;99.90;;;;;;2563296;23;20012;-78
2022/12/26 00:13:22;;;;;;;16.00;10.35;;;9.50;99.90;;;;;;2552291;23;20005;-78
2022/12/26 00:14:22;;;;;;;14.65;10.57;;;9.50;99.90;;;;;;2552841;23;20005;-78
2022/12/26 00:15:23;;;;;;;15.68;10.35;;;9.50;99.90;;;;;;2563381;23;20095;-77
2022/12/26 00:16:24;;;;;;;14.35;9.70;;;9.50;99.90;;;;;;2563610;23;20005;-78
2022/12/26 00:17:24;;;;;;;12.70;9.35;;;9.50;99.90;;;;;;2563600;23;20008;-78
2022/12/26 00:18:25;;;;;;;14.27;9.07;;;9.50;99.90;;;;;;2566260;23;20004;-78
2022/12/26 00:19:25;;;;;;;14.75;9.68;;;9.50;99.90;;;;;;2549785;23;20009;-78
2022/12/26 00:20:26;;;;;;;14.65;9.55;;;9.50;99.90;;;;;;2550091;23;20009;-78
2022/12/26 00:21:27;;;;;;;12.77;9.00;;;9.50;99.90;;;;;;2563578;23;20009;-78
2022/12/26 00:22:28;;;;;;;13.45;9.00;;;9.50;99.90;;;;;;2565788;23;20027;-78
2022/12/26 00:23:31;;;;;;;13.15;8.75;;;9.50;99.90;;;;;;2563481;23;20072;-78
2022/12/26 00:24:31;;;;;;;11.27;7.78;;;9.50;99.90;;;;;;2550005;23;20389;-78
2022/12/26 00:25:33;;;;;;;9.85;7.50;;;9.50;99.90;;;;;;2537768;23;20065;-76
2022/12/26 00:26:35;;;;;;;12.32;8.00;;;9.50;99.90;;;;;;2538072;23;20449;-76
2022/12/26 00:27:35;;;;;;;12.23;8.40;;;9.50;99.90;;;;;;2540194;23;20073;-78
2022/12/26 00:28:36;;;;;;;11.13;8.30;;;9.60;99.90;;;;;;2550472;23;20000;-76
2022/12/26 00:29:37;;;;;;;10.88;7.85;;;9.60;99.90;;;;;;2563412;23;20500;-77
2022/12/26 00:30:37;;;;;;;10.05;7.70;;;9.60;99.90;;;;;;2550049;23;20068;-76
2022/12/26 00:31:38;;;;;;;10.82;7.40;;;9.60;99.90;;;;;;2540028;23;20005;-77
2022/12/26 00:32:38;;;;;;;13.20;8.50;;;9.60;99.90;;;;;;2550156;23;20084;-77
2022/12/26 00:33:39;;;;;;;10.73;7.60;;;9.70;99.90;;;;;;2550254;23;20038;-76
2022/12/26 00:34:39;;;;;;;13.38;8.45;;;9.70;99.90;;;;;;2550199;23;20472;-77
2022/12/26 00:35:40;;;;;;;11.90;8.18;;;9.60;99.90;;;;;;2550139;23;20012;-77
2022/12/26 00:36:40;;;;;;;12.30;8.27;;;9.70;99.90;;;;;;2565507;23;20008;-76
2022/12/26 00:37:42;;;;;;;11.13;7.72;;;9.70;99.90;;;;;;2549956;23;20009;-76
2022/12/26 00:38:43;;;;;;;9.77;7.50;;;9.70;99.90;;;;;;2550413;23;20469;-77
2022/12/26 00:39:44;;;;;;;10.68;7.47;;;9.70;99.90;;;;;;2563436;23;20015;-77
2022/12/26 00:40:44;;;;;;;9.50;7.18;;;9.70;99.90;;;;;;2563558;23;20019;-77
2022/12/26 00:41:45;;;;;;;11.05;7.53;;;9.70;99.90;;;;;;2552233;23;20005;-76
2022/12/26 00:42:45;;;;;;;12.68;8.25;;;9.70;99.90;;;;;;2525499;23;20007;-76
2022/12/26 00:43:47;;;;;;;12.52;8.40;;;9.70;99.90;;;;;;2537650;23;20009;-76
2022/12/26 00:44:47;;;;;;;11.18;8.15;;;9.70;99.90;;;;;;2555800;23;20567;-76
2022/12/26 00:45:48;;;;;;;11.52;8.27;;;9.70;99.90;;;;;;2565413;23;20012;-77
2022/12/26 00:46:49;;;;;;;11.30;8.05;;;9.80;99.90;;;;;;2563500;23;20013;-77
2022/12/26 00:47:49;;;;;;;10.65;7.55;;;9.70;99.90;;;;;;2563400;23;20009;-77
2022/12/26 00:48:50;;;;;;;13.57;8.75;;;9.70;99.90;;;;;;2563519;23;20015;-77
2022/12/26 00:49:50;;;;;;;10.82;8.10;;;9.80;99.90;;;;;;2563371;23;20009;-76
2022/12/26 00:50:51;;;;;;;11.63;8.00;;;9.80;99.90;;;;;;2551422;23;20074;-77
2022/12/26 00:51:52;;;;;;;10.88;7.80;;;9.80;99.90;;;;;;2549717;23;20029;-77
2022/12/26 00:52:54;;;;;;;11.23;8.10;;;9.70;99.90;;;;;;2549939;23;20009;-82
2022/12/26 00:53:54;;;;;;;13.50;9.07;;;9.80;99.90;;;;;;2549996;23;20012;-81
2022/12/26 00:54:55;;;;;;;11.98;8.40;;;9.80;99.90;;;;;;2551896;23;20020;-82
2022/12/26 00:55:55;;;;;;;12.35;8.65;;;9.80;99.90;;;;;;2549834;23;20015;-80
2022/12/26 00:56:56;;;;;;;12.73;8.73;;;9.80;99.90;;;;;;2563446;23;20009;-81
2022/12/26 00:57:56;;;;;;;12.75;8.90;;;9.80;99.90;;;;;;2549695;23;20032;-81
2022/12/26 00:58:57;;;;;;;12.20;8.70;;;9.80;99.90;;;;;;2551810;23;20084;-80
2022/12/26 00:59:57;;;;;;;12.32;8.68;;;9.80;99.90;;;;;;2549766;23;20011;-81
2022/12/26 01:01:12;;;;;;;12.60;8.85;;;9.80;99.90;;;;;;2549804;23;20009;-80
2022/12/26 01:03:31;;;;;;;15.27;10.05;;;9.80;99.90;;;;;;2565015;23;20008;-81
2022/12/26 01:04:32;;;;;;;12.27;9.23;;;9.80;99.90;;;;;;2563016;23;20015;-81
2022/12/26 01:05:33;;;;;;;15.65;9.90;;;9.80;99.90;;;;;;2563342;23;20282;-81
2022/12/26 01:06:34;;;;;;;13.88;9.80;;;9.80;99.90;;;;;;2563872;23;20031;-81
2022/12/26 01:07:36;;;;;;;13.75;9.63;;;9.70;99.90;;;;;;2563489;23;20363;-81
2022/12/26 01:08:36;;;;;;;12.32;8.88;;;9.70;99.90;;;;;;2563179;23;20291;-80
2022/12/26 01:09:37;;;;;;;14.38;9.18;;;9.70;99.90;;;;;;2565315;23;20004;-81
2022/12/26 01:10:42;;;;;;;13.05;9.20;;;9.70;99.90;;;;;;2550129;23;20012;-81
2022/12/26 01:11:43;;;;;;;13.32;9.75;;;9.70;99.90;;;;;;2551085;23;20505;-81
2022/12/26 01:12:43;;;;;;;12.45;9.23;;;9.70;99.90;;;;;;2550645;23;20005;-80
2022/12/26 01:13:44;;;;;;;12.65;8.77;;;9.70;99.90;;;;;;2540167;23;20443;-81
2022/12/26 01:14:45;;;;;;;13.15;8.98;;;9.70;99.90;;;;;;2551535;23;20377;-79
2022/12/26 01:15:49;;;;;;;15.68;11.75;;;9.70;99.90;;;;;;2564539;23;20000;-81
2022/12/26 01:16:50;;;;;;;16.20;12.30;;;9.70;99.90;;;;;;2538462;23;20021;-81
2022/12/26 01:17:50;;;;;;;15.32;11.38;;;9.70;99.90;;;;;;2528659;23;20451;-80
2022/12/26 01:18:51;;;;;;;15.43;11.30;;;9.70;99.90;;;;;;2551217;23;20482;-80
2022/12/26 01:19:51;;;;;;;14.88;10.43;;;9.70;99.90;;;;;;2550334;23;20009;-80
2022/12/26 01:20:57;;;;;;;13.98;10.00;;;9.60;99.90;;;;;;2553226;23;20068;-80
2022/12/26 01:21:58;;;;;;;16.73;10.77;;;9.70;99.90;;;;;;2541555;23;20017;-81
2022/12/26 01:22:58;;;;;;;15.50;10.23;;;9.70;99.90;;;;;;2553526;23;20033;-81
2022/12/26 01:23:59;;;;;;;14.30;9.63;;;9.70;99.90;;;;;;2559498;23;20016;-82
2022/12/26 01:25:00;;;;;;;14.65;10.30;;;9.70;99.90;;;;;;2557816;23;20009;-81
2022/12/26 01:26:00;;;;;;;14.32;10.35;;;9.70;99.90;;;;;;2556242;23;20052;-82
2022/12/26 01:27:01;;;;;;;14.77;10.30;;;9.70;99.90;;;;;;2555189;23;20013;-80
2022/12/26 01:28:01;;;;;;;15.25;10.82;;;9.70;99.90;;;;;;2556423;23;20167;-82
2022/12/26 01:29:02;;;;;;;17.10;11.45;;;9.60;99.90;;;;;;2556730;23;20048;-82
2022/12/26 01:30:03;;;;;;;17.15;10.80;;;9.60;99.90;;;;;;2555120;23;20039;-81
2022/12/26 01:31:04;;;;;;;16.38;10.82;;;9.60;99.90;;;;;;2553227;23;20079;-82
2022/12/26 01:32:05;;;;;;;17.40;10.98;;;9.60;99.90;;;;;;2555645;23;20599;-82
2022/12/26 01:33:05;;;;;;;16.50;11.15;;;9.70;99.90;;;;;;2553486;23;20123;-82
2022/12/26 01:34:06;;;;;;;13.60;10.02;;;9.60;99.90;;;;;;2540588;23;20055;-82
2022/12/26 01:35:07;;;;;;;17.02;11.43;;;9.60;99.90;;;;;;2527985;23;20002;-79
2022/12/26 01:36:08;;;;;;;14.65;10.77;;;9.60;99.90;;;;;;2530236;23;20017;-79
2022/12/26 01:37:12;;;;;;;15.15;10.65;;;9.60;99.90;;;;;;2528821;23;20041;-81
2022/12/26 01:38:12;;;;;;;16.75;11.38;;;9.60;99.90;;;;;;2553315;23;20012;-81
2022/12/26 01:39:13;;;;;;;16.85;11.18;;;9.60;99.90;;;;;;2553240;23;20036;-81
2022/12/26 01:40:13;;;;;;;14.55;10.50;;;9.60;99.90;;;;;;2552720;23;20005;-81
2022/12/26 01:41:18;;;;;;;15.55;10.85;;;9.60;99.90;;;;;;2553497;23;20040;-81
2022/12/26 01:42:22;;;;;;;16.42;11.07;;;9.60;99.90;;;;;;2550875;23;20035;-80
2022/12/26 01:43:22;;;;;;;15.32;11.00;;;9.60;99.90;;;;;;2552599;23;20442;-81
2022/12/26 01:44:56;;;;;;;17.98;11.32;;;9.60;99.90;;;;;;2548232;23;20037;-82
2022/12/26 01:45:57;;;;;;;14.70;10.07;;;9.60;99.90;;;;;;2551352;23;20005;-82
2022/12/26 01:46:58;;;;;;;14.82;10.82;;;9.60;99.90;;;;;;2549761;23;20091;-81
2022/12/26 01:48:32;;;;;;;15.90;10.73;;;9.60;99.90;;;;;;2552026;23;20118;-82
2022/12/26 01:49:39;;;;;;;15.45;10.43;;;9.60;99.90;;;;;;2527102;23;20081;-81
2022/12/26 01:50:55;;;;;;;13.55;9.90;;;9.60;99.90;;;;;;2550923;23;20501;-81
2022/12/26 01:52:01;;;;;;;13.13;9.55;;;9.60;99.90;;;;;;2550861;23;20116;-82
2022/12/26 01:53:10;;;;;;;14.95;10.43;;;9.60;99.90;;;;;;2553087;23;20078;-82
2022/12/26 01:54:12;;;;;;;15.85;10.60;;;9.60;99.90;;;;;;2553173;23;20585;-82
2022/12/26 01:55:16;;;;;;;15.68;10.40;;;9.60;99.90;;;;;;2550318;23;20004;-82
2022/12/26 01:56:22;;;;;;;15.02;10.50;;;9.60;99.90;;;;;;2539152;23;20636;-82
2022/12/26 01:57:28;;;;;;;15.73;10.57;;;9.60;99.90;;;;;;2551580;23;20013;-82
2022/12/26 01:58:33;;;;;;;14.85;10.32;;;9.50;99.90;;;;;;2562753;23;19996;-82
2022/12/26 01:59:37;;;;;;;15.60;10.82;;;9.50;99.90;;;;;;2552235;23;20375;-82
2022/12/26 02:00:38;;;;;;;14.98;10.80;;;9.50;99.90;;;;;;2554774;23;20027;-80
2022/12/26 02:01:41;;;;;;;17.23;11.60;;;9.60;99.90;;;;;;2552986;23;20079;-82
2022/12/26 02:05:34;;;;;;;14.52;10.05;;;9.60;99.90;;;;;;2551916;23;20001;-84
2022/12/26 02:06:36;;;;;;;14.82;10.60;;;9.60;99.90;;;;;;2537821;23;20013;-82
2022/12/26 02:07:40;;;;;;;15.07;10.18;;;9.60;99.90;;;;;;2537558;23;20447;-82
2022/12/26 02:08:42;;;;;;;16.40;10.80;;;9.60;99.90;;;;;;2552251;23;20485;-81
2022/12/26 02:09:43;;;;;;;16.50;11.13;;;9.60;99.90;;;;;;2550737;23;20156;-80
2022/12/26 02:10:51;;;;;;;15.48;10.82;;;9.60;99.90;;;;;;2553643;23;20008;-81
2022/12/26 02:12:01;;;;;;;15.15;10.70;;;9.60;99.90;;;;;;2554661;23;20016;-81
2022/12/26 02:13:02;;;;;;;14.88;10.38;;;9.60;99.90;;;;;;2555541;23;20389;-81
2022/12/26 02:14:06;;;;;;;14.02;10.57;;;9.60;99.90;;;;;;2552736;23;20009;-80
2022/12/26 02:15:11;;;;;;;15.73;10.65;;;9.60;99.90;;;;;;2552334;23;20009;-82
2022/12/26 02:16:14;;;;;;;15.73;11.00;;;9.60;99.90;;;;;;2551261;23;20067;-82
2022/12/26 02:17:16;;;;;;;16.00;11.43;;;9.60;99.90;;;;;;2551589;23;20108;-81
2022/12/26 02:18:16;;;;;;;16.23;10.85;;;9.60;99.90;;;;;;2554886;23;20004;-81
2022/12/26 02:19:42;;;;;;;14.70;10.57;;;9.60;99.90;;;;;;2540422;23;20017;-81
2022/12/26 02:21:03;;;;;;;14.77;10.52;;;9.60;99.90;;;;;;2536075;23;20215;-81
2022/12/26 02:22:09;;;;;;;;;;;9.60;99.90;;;;;;2551570;23;20313;-80
2022/12/26 02:23:26;;;;;;;17.63;11.35;;;9.60;99.90;;;;;;2551816;23;20337;-80
2022/12/26 02:24:46;;;;;;;18.77;11.25;;;9.60;99.90;;;;;;2554556;23;20451;-80
2022/12/26 02:26:06;;;;;;;18.17;11.60;;;9.60;99.90;;;;;;2553680;23;20020;-81
2022/12/26 02:27:39;;;;;;;19.05;11.45;;;9.50;99.90;;;;;;2540982;23;20060;-80
2022/12/26 02:28:58;;;;;;;16.08;11.20;;;9.50;99.90;;;;;;2544560;23;20474;-81
2022/12/26 02:30:40;;;;;;;16.03;11.17;;;9.50;99.90;;;;;;2553408;23;20013;-81
2022/12/26 02:31:51;;;;;;;16.00;11.27;;;9.50;99.90;;;;;;2552628;23;20240;-80
2022/12/26 02:33:26;;;;;;;14.63;10.45;;;9.50;99.90;;;;;;2552911;23;20009;-81
2022/12/26 02:34:37;;;;;;;15.88;11.02;;;9.50;99.90;;;;;;2551513;23;19993;-81
2022/12/26 02:35:48;;;;;;;15.68;10.85;;;9.50;99.90;;;;;;2551433;23;20005;-81
2022/12/26 02:37:13;;;;;;;15.65;10.57;;;9.50;99.90;;;;;;2553198;23;20469;-81
2022/12/26 02:38:33;;;;;;;16.63;10.98;;;9.50;99.90;;;;;;2538872;23;20006;-82
2022/12/26 02:40:28;;;;;;;15.98;10.85;;;9.50;99.90;;;;;;2535376;23;20010;-81
2022/12/26 02:42:02;;;;;;;15.73;10.88;;;9.50;99.90;;;;;;2526488;23;19997;-82
2022/12/26 02:43:25;;;;;;;16.77;11.32;;;9.50;99.90;;;;;;2530258;23;20039;-82
2022/12/26 02:47:55;;;;;;;16.40;11.30;;;9.60;99.90;;;;;;2552192;23;20051;-82
2022/12/26 02:49:17;;;;;;;15.48;10.95;;;9.50;99.90;;;;;;2554402;23;20047;-81
2022/12/26 03:13:29;;;;;;;17.02;11.50;;;9.50;99.90;;;;;;2550396;23;20465;-81
2022/12/26 03:14:43;;;;;;;18.23;12.15;;;9.60;99.90;;;;;;2552320;23;20020;-81
2022/12/26 03:17:28;;;;;;;16.73;10.93;;;9.50;99.90;;;;;;2550446;23;20083;-82
2022/12/26 03:18:32;;;;;;;14.65;10.40;;;9.50;99.90;;;;;;2552437;23;19997;-81
2022/12/26 03:19:36;;;;;;;16.48;11.00;;;9.60;99.90;;;;;;2560704;23;20669;-82
2022/12/26 03:20:37;;;;;;;17.02;11.63;;;9.50;99.90;;;;;;2537426;23;20021;-82
2022/12/26 03:21:41;;;;;;;16.58;10.75;;;9.50;99.90;;;;;;2525441;23;20013;-81
2022/12/26 03:22:53;;;;;;;16.58;10.98;;;9.50;99.90;;;;;;2551378;23;20009;-83
2022/12/26 03:23:55;;;;;;;17.50;10.95;;;9.60;99.90;;;;;;2553345;23;20009;-82
2022/12/26 03:26:40;;;;;;;16.05;11.10;;;9.60;99.90;;;;;;2565782;23;19997;-82
2022/12/26 03:27:41;;;;;;;17.30;11.35;;;9.60;99.90;;;;;;2566674;23;20015;-82
2022/12/26 03:28:43;;;;;;;15.45;10.93;;;9.60;99.90;;;;;;2563666;23;20020;-82
2022/12/26 03:31:08;;;;;;;14.73;10.57;;;9.60;99.90;;;;;;2554995;23;20012;-82
2022/12/26 03:32:11;;;;;;;18.00;10.70;;;9.70;99.90;;;;;;2563591;23;20012;-81
2022/12/26 03:34:31;;;;;;;14.35;10.15;;;9.70;99.90;;;;;;2565625;23;20008;-81
2022/12/26 03:35:33;;;;;;;16.83;11.77;;;9.60;99.90;;;;;;2550037;23;20092;-81
2022/12/26 03:36:54;;;;;;;17.15;11.35;;;9.60;99.90;;;;;;2550943;23;20435;-80
2022/12/26 03:38:11;;;;;;;14.18;10.23;;;9.60;99.90;;;;;;2550474;23;20438;-82
2022/12/26 04:19:44;;;;;;;14.30;10.10;;;9.00;99.90;;;;;;2562664;23;20009;-81
2022/12/26 04:20:34;;;;;;;14.88;9.75;;;9.00;99.90;;;;;;2545220;23;20037;-81
2022/12/26 04:44:58;;;;;;;4.55;2.80;;;11.70;99.90;;;;;;2563812;23;20492;-81
2022/12/26 04:46:00;;;;;;;3.33;2.75;;;11.80;99.90;;;;;;2566066;23;20024;-81
2022/12/26 04:47:01;;;;;;;8.02;2.72;;;11.80;99.90;;;;;;2566172;23;20015;-81
2022/12/26 04:50:50;;;;;;;2.70;2.50;;;12.00;99.90;;;;;;2553863;23;20072;-81
2022/12/26 04:51:51;;;;;;;3.88;2.60;;;12.00;99.90;;;;;;2542178;23;20471;-82
2022/12/26 04:52:57;;;;;;;3.17;2.67;;;12.00;99.90;;;;;;2550645;23;20005;-70
2022/12/26 04:53:58;;;;;;;2.72;2.53;;;11.90;99.90;;;;;;2562508;23;20055;-69
2022/12/26 04:54:58;;;;;;;4.75;2.72;;;11.90;99.90;;;;;;2562467;23;20001;-69
2022/12/26 04:55:59;;;;;;;3.80;2.88;;;11.90;99.90;;;;;;2564686;23;20011;-69
2022/12/26 04:56:59;;;;;;;3.88;2.90;;;11.90;99.90;;;;;;2562525;23;20004;-69
2022/12/26 04:58:00;;;;;;;6.25;3.00;;;12.00;99.90;;;;;;2562531;23;20031;-69
2022/12/26 04:59:00;;;;;;;3.40;2.70;;;12.00;99.90;;;;;;2562449;23;20000;-68
2022/12/26 05:00:01;;;;;;;4.13;2.72;;;12.00;99.90;;;;;;2562821;23;20008;-69
2022/12/26 05:10:25;;;;;;;4.28;3.00;;;11.90;99.90;;;;;;2555656;23;20001;-69
2022/12/26 05:11:27;;;;;;;4.35;2.90;;;12.00;99.90;;;;;;2564868;23;20009;-70
2022/12/26 05:12:27;;;;;;;3.15;2.85;;;12.00;99.90;;;;;;2562438;23;20013;-69
2022/12/26 05:13:28;;;;;;;3.00;2.65;;;12.00;99.90;;;;;;2562669;23;20151;-70
2022/12/26 05:14:30;;;;;;;3.53;3.00;;;12.00;99.90;;;;;;2564197;23;20035;-71
2022/12/26 05:28:40;;;;;;;3.60;2.80;;;11.90;99.90;;;;;;2563562;23;20456;-76
2022/12/26 05:29:02;;;;;;;4.45;2.97;;;11.90;99.90;;;;;;2565804;23;20015;-81
2022/12/26 05:30:04;;;;;;;4.57;3.05;;;12.00;99.90;;;;;;2537549;23;20010;-79
2022/12/26 05:31:05;;;;;;;4.13;2.92;;;12.00;99.90;;;;;;2526255;23;20045;-82
2022/12/26 05:32:06;;;;;;;3.40;2.90;;;12.00;99.90;;;;;;2538061;23;20076;-81
2022/12/26 05:34:25;;;;;;;4.38;3.15;;;12.10;99.90;;;;;;2563442;23;20044;-81
2022/12/26 05:35:26;;;;;;;6.88;3.30;;;12.00;99.90;;;;;;2563301;23;20000;-82
2022/12/26 05:36:32;;;;;;;4.63;3.00;;;12.00;99.90;;;;;;2565557;23;20001;-80
2022/12/26 05:37:34;;;;;;;5.45;3.10;;;11.90;99.90;;;;;;2551822;23;20418;-80
2022/12/26 05:38:35;;;;;;;5.43;3.30;;;11.90;99.90;;;;;;2550707;23;20016;-82
2022/12/26 05:39:36;;;;;;;4.40;3.28;;;12.00;99.90;;;;;;2563129;23;20019;-82
2022/12/26 05:40:36;;;;;;;5.40;3.58;;;12.00;99.90;;;;;;2563600;23;20020;-81
2022/12/26 05:41:39;;;;;;;4.55;3.20;;;12.10;99.90;;;;;;2565127;23;20013;-80
2022/12/26 05:42:39;;;;;;;4.18;3.25;;;12.10;99.90;;;;;;2563487;23;20039;-81
2022/12/26 05:43:40;;;;;;;6.72;3.30;;;12.10;99.90;;;;;;2563274;23;20004;-81
2022/12/26 05:44:40;;;;;;;5.07;3.50;;;12.10;99.90;;;;;;2545087;23;20016;-80
2022/12/26 05:45:41;;;;;;;5.90;3.30;;;12.20;99.90;;;;;;2549928;23;20039;-81
2022/12/26 05:46:42;;;;;;;5.25;3.33;;;12.10;99.90;;;;;;2551978;23;20008;-79
2022/12/26 05:47:42;;;;;;;5.35;3.58;;;12.20;99.90;;;;;;2552900;23;20039;-80
2022/12/26 05:48:43;;;;;;;4.90;3.40;;;12.20;99.90;;;;;;2549967;23;20362;-79
2022/12/26 05:49:43;;;;;;;4.55;3.45;;;12.20;99.90;;;;;;2549870;23;20460;-80
2022/12/26 05:50:44;;;;;;;6.32;3.65;;;12.20;99.90;;;;;;2565350;23;20076;-81
2022/12/26 05:51:45;;;;;;;6.45;3.70;;;12.20;99.90;;;;;;2563219;23;20004;-80
2022/12/26 05:52:45;;;;;;;5.47;3.47;;;12.20;99.90;;;;;;2563052;23;20337;-81
2022/12/26 05:53:47;;;;;;;5.40;3.60;;;12.20;99.90;;;;;;2563204;23;20019;-80
2022/12/26 05:54:47;;;;;;;4.80;3.22;;;12.20;99.90;;;;;;2563683;23;20086;-80
2022/12/26 05:55:48;;;;;;;7.57;3.50;;;12.30;99.90;;;;;;2565361;23;20008;-81
2022/12/26 05:56:48;;;;;;;4.07;3.28;;;12.20;99.90;;;;;;2563242;23;20032;-80
2022/12/26 05:57:49;;;;;;;5.43;3.50;;;12.20;99.90;;;;;;2562276;23;20003;-81
2022/12/26 05:58:59;;;;;;;5.03;3.28;;;12.20;99.90;;;;;;2565347;23;20158;-79
2022/12/26 05:59:59;;;;;;;4.88;3.28;;;12.20;99.90;;;;;;2565379;23;20361;-81
2022/12/26 06:01:12;;;;;;;4.32;3.22;;;12.20;99.90;;;;;;2549620;23;20032;-81
2022/12/26 06:02:12;;;;;;;5.47;3.40;;;12.20;99.90;;;;;;2529897;23;20085;-81
2022/12/26 06:03:13;;;;;;;4.60;3.40;;;12.20;99.90;;;;;;2537765;23;20001;-81
2022/12/26 06:04:14;;;;;;;4.72;3.50;;;12.20;99.90;;;;;;2563192;23;20012;-82
2022/12/26 06:05:15;;;;;;;4.82;3.58;;;12.10;99.90;;;;;;2563696;23;20028;-82
2022/12/26 06:06:16;;;;;;;6.65;3.75;;;12.10;99.90;;;;;;2565606;23;20341;-81
2022/12/26 06:07:16;;;;;;;5.13;3.45;;;12.10;99.90;;;;;;2563243;23;20164;-82
2022/12/26 06:08:17;;;;;;;5.28;3.40;;;12.10;99.90;;;;;;2550438;23;19997;-82
2022/12/26 06:09:17;;;;;;;4.47;3.50;;;12.00;99.90;;;;;;2550386;23;20008;-82
2022/12/26 06:10:18;;;;;;;6.70;3.47;;;12.00;99.90;;;;;;2565435;23;20005;-80
2022/12/26 06:11:20;;;;;;;4.93;3.28;;;12.10;99.90;;;;;;2565309;23;20027;-81
2022/12/26 06:12:21;;;;;;;4.97;3.53;;;12.10;99.90;;;;;;2562460;23;20016;-81
2022/12/26 06:13:22;;;;;;;5.00;3.40;;;12.10;99.90;;;;;;2550325;23;20008;-82
2022/12/26 06:14:23;;;;;;;4.45;3.42;;;12.10;99.90;;;;;;2550006;23;20075;-79
2022/12/26 06:15:23;;;;;;;5.60;3.50;;;12.10;99.90;;;;;;2549667;23;20021;-81
2022/12/26 06:16:24;;;;;;;5.93;3.60;;;12.10;99.90;;;;;;2551826;23;20007;-81
2022/12/26 06:17:24;;;;;;;5.85;3.60;;;12.10;99.90;;;;;;2563371;23;20073;-80
2022/12/26 06:18:25;;;;;;;6.60;3.55;;;12.20;99.90;;;;;;2562224;23;19992;-82
2022/12/26 06:19:25;;;;;;;5.72;3.42;;;12.10;99.90;;;;;;2564489;23;20540;-82
2022/12/26 06:20:26;;;;;;;4.85;3.55;;;12.10;99.90;;;;;;2551481;23;20005;-82
2022/12/26 06:21:26;;;;;;;4.90;3.30;;;12.10;99.90;;;;;;2550366;23;20001;-81
2022/12/26 06:22:30;;;;;;;5.40;3.60;;;12.10;99.90;;;;;;2550920;23;19997;-83
2022/12/26 06:23:31;;;;;;;5.25;3.70;;;12.10;99.90;;;;;;2538509;23;20052;-83
2022/12/26 06:24:32;;;;;;;6.28;3.60;;;12.10;99.90;;;;;;2538167;23;20173;-81
2022/12/26 06:25:32;;;;;;;6.57;3.55;;;12.10;99.90;;;;;;2553379;23;20012;-82
2022/12/26 06:26:33;;;;;;;4.55;3.50;;;12.10;99.90;;;;;;2550667;23;20148;-82
2022/12/26 06:27:33;;;;;;;4.70;3.30;;;12.10;99.90;;;;;;2550468;23;20009;-81
2022/12/26 06:28:36;;;;;;;5.57;3.47;;;12.10;99.90;;;;;;2551245;23;20263;-80
2022/12/26 06:29:36;;;;;;;4.70;3.50;;;12.10;99.90;;;;;;2553159;23;20449;-81
2022/12/26 06:30:37;;;;;;;4.78;3.38;;;12.10;99.90;;;;;;2551634;23;20009;-82
2022/12/26 06:31:37;;;;;;;7.07;3.42;;;12.00;99.90;;;;;;2554805;23;20481;-80
2022/12/26 06:32:38;;;;;;;5.70;3.67;;;12.00;99.90;;;;;;2555111;23;20018;-81
2022/12/26 06:33:39;;;;;;;5.93;3.50;;;12.00;99.90;;;;;;2554765;23;20020;-82
2022/12/26 06:34:40;;;;;;;5.57;3.70;;;12.00;99.90;;;;;;2553149;23;20136;-80
2022/12/26 06:35:40;;;;;;;6.45;3.60;;;12.00;99.90;;;;;;2551860;23;20032;-79
2022/12/26 06:36:41;;;;;;;5.32;3.70;;;12.00;99.90;;;;;;2542544;23;20001;-83
2022/12/26 06:37:41;;;;;;;5.35;3.55;;;12.00;99.90;;;;;;2551552;23;20005;-81
2022/12/26 06:38:42;;;;;;;4.43;3.33;;;11.90;99.90;;;;;;2552033;23;20633;-81
2022/12/26 06:39:43;;;;;;;5.03;3.80;;;12.00;99.90;;;;;;2555355;23;20358;-81
2022/12/26 06:40:43;;;;;;;4.60;3.50;;;11.90;99.90;;;;;;2552233;23;20040;-81
2022/12/26 06:41:44;;;;;;;4.95;3.60;;;12.00;99.90;;;;;;2554224;23;20005;-81
2022/12/26 06:42:44;;;;;;;5.10;3.45;;;11.90;99.90;;;;;;2553599;23;20013;-80
2022/12/26 06:43:46;;;;;;;6.65;3.42;;;11.90;99.90;;;;;;2556177;23;20009;-79
2022/12/26 06:44:46;;;;;;;5.75;3.63;;;12.00;99.90;;;;;;2555420;23;20076;-81
2022/12/26 06:45:55;;;;;;;5.00;3.58;;;12.00;99.90;;;;;;2555836;23;20015;-79
2022/12/26 06:46:55;;;;;;;5.15;3.70;;;11.90;99.90;;;;;;2556416;23;20060;-82
2022/12/26 06:47:58;;;;;;;5.72;3.80;;;11.90;99.90;;;;;;2556118;23;20016;-81
2022/12/26 06:48:58;;;;;;;5.65;3.50;;;12.00;99.90;;;;;;2555795;23;20029;-81
2022/12/26 06:49:59;;;;;;;7.80;3.58;;;12.00;99.90;;;;;;2544339;23;20010;-81
2022/12/26 06:51:04;;;;;;;5.78;3.53;;;12.00;99.90;;;;;;2555170;23;20083;-81
2022/12/26 06:52:05;;;;;;;5.00;3.38;;;12.00;99.90;;;;;;2555847;23;20013;-81
2022/12/26 06:53:05;;;;;;;5.15;3.47;;;12.10;99.90;;;;;;2543482;23;20017;-83
2022/12/26 06:54:06;;;;;;;6.18;3.40;;;12.00;99.90;;;;;;2537398;23;20005;-81
2022/12/26 06:55:07;;;;;;;6.47;3.65;;;12.00;99.90;;;;;;2552105;23;20009;-81
2022/12/26 06:56:10;;;;;;;5.32;3.53;;;12.00;99.90;;;;;;2537614;23;20315;-82
2022/12/26 06:57:10;;;;;;;5.18;3.58;;;12.00;99.90;;;;;;2540957;23;20009;-81
2022/12/26 06:58:11;;;;;;;6.22;3.63;;;11.90;99.90;;;;;;2554081;23;20060;-82
2022/12/26 06:59:11;;;;;;;6.47;3.40;;;11.90;99.90;;;;;;2556252;23;20001;-83
2022/12/26 07:00:13;;;;;;;4.40;3.58;;;11.90;99.90;;;;;;2555329;23;20005;-83
2022/12/26 07:01:16;;;;;;;5.55;3.70;;;12.00;99.90;;;;;;2551046;23;20200;-84
2022/12/26 07:02:17;;;;;;;4.90;3.60;;;11.90;99.90;;;;;;2538615;23;20001;-82
2022/12/26 07:03:17;;;;;;;5.38;3.80;;;11.90;99.90;;;;;;2537478;23;20005;-83
2022/12/26 07:04:18;;;;;;;4.40;3.58;;;11.90;99.90;;;;;;2539742;23;20155;-83
2022/12/26 07:05:18;;;;;;;5.10;3.42;;;11.90;99.90;;;;;;2538290;23;20092;-83
2022/12/26 07:06:30;;;;;;;6.55;3.80;;;11.90;99.90;;;;;;2550303;23;20051;-82
2022/12/26 07:07:31;;;;;;;5.60;3.90;;;11.90;99.90;;;;;;2550966;23;20040;-80
2022/12/26 07:08:34;;;;;;;5.55;3.72;;;12.00;99.90;;;;;;2550269;23;20029;-83
2022/12/26 07:09:35;;;;;;;7.10;3.83;;;11.90;99.90;;;;;;2550002;23;20469;-82
2022/12/26 07:10:36;;;;;;;4.28;3.55;;;11.90;99.90;;;;;;2551619;23;20009;-85
2022/12/26 07:11:46;;;;;;;5.43;3.60;;;11.90;99.90;;;;;;2540403;23;20009;-85
2022/12/26 07:12:47;;;;;;;6.13;4.22;;;11.90;99.90;;;;;;2529024;23;20075;-83
2022/12/26 07:13:48;;;;;;;4.70;3.20;;;11.90;99.90;;;;;;2550393;23;20118;-82
2022/12/26 07:14:51;;;;;;;5.97;3.45;;;11.90;99.90;;;;;;2553321;23;20012;-82
2022/12/26 07:15:52;;;;;;;5.20;3.42;;;11.90;99.90;;;;;;2552550;23;20017;-83
2022/12/26 07:16:53;;;;;;;6.95;3.38;;;11.90;99.90;;;;;;2550184;23;20398;-82
2022/12/26 07:17:54;;;;;;;5.15;3.50;;;12.00;99.90;;;;;;2551343;23;20064;-82
2022/12/26 07:18:57;;;;;;;5.93;3.50;;;12.00;99.90;;;;;;2550805;23;19997;-82
2022/12/26 07:19:57;;;;;;;6.47;3.40;;;11.90;99.90;;;;;;2553759;23;20017;-83
2022/12/26 07:21:02;;;;;;;5.43;3.72;;;11.90;99.90;;;;;;2551843;23;20516;-83
2022/12/26 07:22:03;;;;;;;5.55;3.60;;;11.90;99.90;;;;;;2562794;23;20487;-79
2022/12/26 07:23:03;;;;;;;5.18;3.40;;;11.90;99.90;;;;;;2551980;23;20009;-81
2022/12/26 07:24:04;;;;;;;5.35;3.47;;;11.80;99.90;;;;;;2555492;23;20016;-82
2022/12/26 07:25:05;;;;;;;4.15;3.42;;;11.80;99.90;;;;;;2552668;23;20095;-83
2022/12/26 07:26:06;;;;;;;4.72;3.33;;;11.80;99.90;;;;;;2552539;23;20016;-84
2022/12/26 07:27:07;;;;;;;4.63;3.70;;;11.80;99.90;;;;;;2551683;23;20024;-82
2022/12/26 07:28:10;;;;;;;4.90;3.70;;;11.70;99.90;;;;;;2540046;23;20006;-83
2022/12/26 07:29:12;;;;;;;4.85;3.38;;;11.70;99.90;;;;;;2552107;23;20500;-84
2022/12/26 07:30:13;;;;;;;5.07;3.45;;;11.70;99.90;;;;;;2550638;23;21005;-80
2022/12/26 07:31:18;;;;;;;3.83;3.40;;;11.60;99.90;;;;;;2552276;23;20005;-81
2022/12/26 07:32:19;;;;;;;4.72;3.50;;;11.60;99.90;;;;;;2544917;23;20001;-84
2022/12/26 07:33:24;;;;;;;4.47;3.50;;;11.60;99.90;;;;;;2554675;23;20541;-82
2022/12/26 07:34:25;;;;;;;5.55;3.38;;;11.60;99.90;;;;;;2543864;23;20139;-81
2022/12/26 07:35:25;;;;;;;4.90;3.47;;;11.60;99.90;;;;;;2535035;23;20061;-82